Time;durP1;ratioP1;P1;durP2;ratioP2;P2;SDS_P1;SDS_P2;PMS_P1;PMS_P2;Temp;Humidity;BMP_temperature;BMP_pressure;BME280_temperature;BME280_humidity;BME280_pressure;Samples;Min_cycle;Max_cycle;Signal;HPM_P1;HPM_P2
2023/09/07 04:04:56;;;;;;;0.30;0.20;;;13.30;99.90;;;;;;5881433;23;20514;-66
2023/09/07 04:07:21;;;;;;;0.30;0.20;;;13.30;99.90;;;;;;4955864;29;20486;-66
2023/09/07 04:09:47;;;;;;;0.30;0.20;;;13.20;99.90;;;;;;4954364;28;20269;-64
2023/09/07 04:12:12;;;;;;;0.30;0.30;;;13.20;99.90;;;;;;4955762;29;20179;-65
2023/09/07 04:14:38;;;;;;;0.30;0.20;;;13.20;99.90;;;;;;4955273;28;20200;-65
2023/09/07 04:17:05;;;;;;;0.30;0.30;;;13.20;99.90;;;;;;4955079;29;20309;-67
2023/09/07 04:19:31;;;;;;;0.30;0.20;;;13.20;99.90;;;;;;4937224;29;20427;-64
2023/09/07 04:21:59;;;;;;;0.30;0.30;;;13.20;99.90;;;;;;4954586;29;20422;-66
2023/09/07 04:24:27;;;;;;;0.30;0.30;;;13.10;99.90;;;;;;4954181;29;20548;-65
2023/09/07 04:26:52;;;;;;;0.30;0.20;;;13.10;99.90;;;;;;4938477;29;20462;-67
2023/09/07 04:29:18;;;;;;;0.33;0.33;;;13.10;99.90;;;;;;4955572;29;20946;-66
2023/09/07 04:31:43;;;;;;;0.30;0.27;;;13.10;99.90;;;;;;4954722;29;20176;-66
2023/09/07 04:34:09;;;;;;;0.30;0.20;;;13.00;99.90;;;;;;4952916;29;20258;-66
2023/09/07 04:36:34;;;;;;;0.30;0.30;;;13.10;99.90;;;;;;4953149;29;20623;-65
2023/09/07 04:39:00;;;;;;;0.30;0.20;;;13.00;99.90;;;;;;4953972;29;20229;-65
2023/09/07 04:41:26;;;;;;;0.30;0.20;;;13.00;99.90;;;;;;4953483;29;20545;-64
2023/09/07 04:43:51;;;;;;;0.30;0.30;;;13.00;99.90;;;;;;4953610;29;20403;-64
2023/09/07 04:46:21;;;;;;;0.30;0.30;;;13.00;99.90;;;;;;4953930;28;20210;-64
2023/09/07 04:48:46;;;;;;;0.30;0.30;;;13.00;99.90;;;;;;4955670;29;20191;-67
2023/09/07 04:51:12;;;;;;;0.40;0.40;;;13.00;99.90;;;;;;4955670;29;20766;-66
2023/09/07 04:53:38;;;;;;;0.30;0.30;;;13.00;99.90;;;;;;4955380;29;20201;-66
2023/09/07 04:56:05;;;;;;;0.30;0.20;;;13.00;99.90;;;;;;4955241;29;20200;-67
2023/09/07 04:58:32;;;;;;;0.40;0.40;;;13.00;99.90;;;;;;4955344;29;20766;-67
2023/09/07 05:01:05;;;;;;;0.30;0.30;;;13.00;99.90;;;;;;4955213;29;20407;-68
2023/09/07 05:03:31;;;;;;;0.30;0.30;;;13.00;99.90;;;;;;4955237;29;20439;-66
2023/09/07 05:05:56;;;;;;;0.30;0.30;;;13.10;99.90;;;;;;4954673;28;20456;-67
2023/09/07 05:08:24;;;;;;;0.30;0.27;;;13.10;99.90;;;;;;4955306;29;20264;-64
2023/09/07 05:10:58;;;;;;;0.30;0.20;;;13.10;99.90;;;;;;4954972;29;20190;-66
2023/09/07 05:13:25;;;;;;;0.30;0.20;;;13.20;99.90;;;;;;4955416;29;20472;-64
2023/09/07 05:15:52;;;;;;;0.30;0.20;;;13.30;99.90;;;;;;4954798;29;20431;-66
2023/09/07 05:18:18;;;;;;;0.30;0.20;;;13.40;99.90;;;;;;4955211;29;20408;-66
2023/09/07 05:20:45;;;;;;;0.30;0.30;;;13.50;99.90;;;;;;4955077;29;20466;-66
2023/09/07 05:23:15;;;;;;;0.30;0.20;;;13.60;99.90;;;;;;4955260;29;20404;-66
2023/09/07 05:25:48;;;;;;;0.30;0.30;;;13.80;99.90;;;;;;4954490;28;20443;-68
2023/09/07 05:28:14;;;;;;;0.30;0.20;;;13.90;99.90;;;;;;4955161;29;20972;-64
2023/09/07 05:30:41;;;;;;;0.30;0.20;;;13.90;99.90;;;;;;4955163;29;20415;-68
2023/09/07 05:33:08;;;;;;;0.30;0.20;;;14.00;99.90;;;;;;4955253;29;20428;-67
2023/09/07 05:35:33;;;;;;;0.30;0.30;;;14.10;99.90;;;;;;4954756;28;20810;-68
2023/09/07 05:37:59;;;;;;;0.40;0.40;;;14.10;99.90;;;;;;4955034;29;20407;-67
2023/09/07 05:40:25;;;;;;;0.30;0.30;;;14.10;99.90;;;;;;4955054;29;20195;-66
2023/09/07 05:42:50;;;;;;;0.30;0.20;;;14.10;99.90;;;;;;4955089;29;20582;-65
2023/09/07 05:45:16;;;;;;;0.30;0.20;;;14.10;99.90;;;;;;4954809;29;20220;-65
2023/09/07 05:47:41;;;;;;;0.30;0.30;;;14.20;99.90;;;;;;4954947;29;20211;-64
2023/09/07 05:50:07;;;;;;;0.30;0.30;;;14.40;99.90;;;;;;4955117;29;20172;-66
2023/09/07 05:52:33;;;;;;;0.30;0.30;;;14.50;99.90;;;;;;4955028;29;20252;-64
2023/09/07 05:54:58;;;;;;;0.30;0.20;;;14.60;99.90;;;;;;4954062;29;20440;-66
2023/09/07 05:57:24;;;;;;;0.30;0.20;;;14.60;99.90;;;;;;4954673;29;20220;-66
2023/09/07 05:59:49;;;;;;;0.30;0.30;;;14.70;99.90;;;;;;4954858;29;20168;-65
2023/09/07 06:02:15;;;;;;;0.57;0.57;;;14.80;99.90;;;;;;4954805;29;20173;-64
2023/09/07 06:04:41;;;;;;;0.30;0.30;;;14.90;99.90;;;;;;4954270;29;20196;-65
2023/09/07 06:07:06;;;;;;;0.30;0.30;;;15.00;99.90;;;;;;4937002;29;20207;-67
2023/09/07 06:09:32;;;;;;;0.30;0.30;;;15.10;99.90;;;;;;4954685;29;20627;-64
2023/09/07 06:11:57;;;;;;;0.30;0.30;;;15.30;99.90;;;;;;4954578;29;20172;-66
2023/09/07 06:14:23;;;;;;;0.30;0.20;;;15.40;99.90;;;;;;4936807;29;20538;-65
2023/09/07 06:16:48;;;;;;;0.30;0.30;;;15.50;99.90;;;;;;4954399;29;20180;-65
2023/09/07 06:19:14;;;;;;;0.30;0.30;;;15.60;99.90;;;;;;4956362;28;20180;-65
2023/09/07 06:21:40;;;;;;;0.50;0.50;;;15.70;99.90;;;;;;4958311;29;20742;-65
2023/09/07 06:24:06;;;;;;;0.30;0.30;;;15.90;99.90;;;;;;4957645;29;20263;-64
2023/09/07 06:26:32;;;;;;;0.30;0.30;;;16.00;99.90;;;;;;4957799;29;20207;-67
2023/09/07 06:28:57;;;;;;;0.30;0.30;;;16.20;99.90;;;;;;4940727;29;20412;-65
2023/09/07 06:31:23;;;;;;;0.40;0.40;;;16.40;99.90;;;;;;4957670;29;20165;-66
2023/09/07 06:33:49;;;;;;;0.30;0.27;;;16.60;99.90;;;;;;4956676;29;20543;-66
2023/09/07 06:36:14;;;;;;;0.30;0.30;;;16.80;99.90;;;;;;4957058;29;20203;-65
2023/09/07 06:38:40;;;;;;;0.30;0.30;;;17.00;99.90;;;;;;4957341;29;20183;-65
2023/09/07 06:41:07;;;;;;;0.30;0.20;;;17.20;99.90;;;;;;4939544;29;20261;-62
2023/09/07 06:43:33;;;;;;;0.30;0.30;;;17.30;99.90;;;;;;4957214;29;20175;-64
2023/09/07 06:46:08;;;;;;;0.30;0.20;;;17.40;99.90;;;;;;4955358;29;20490;-64
2023/09/07 06:48:35;;;;;;;0.30;0.20;;;17.50;99.90;;;;;;4940203;29;20183;-65
2023/09/07 06:51:04;;;;;;;0.30;0.20;;;17.60;99.90;;;;;;4957496;29;20419;-68
2023/09/07 06:53:30;;;;;;;0.30;0.23;;;17.60;99.90;;;;;;4957044;29;20402;-65
2023/09/07 06:56:01;;;;;;;0.30;0.20;;;17.80;99.90;;;;;;4956922;28;20478;-67
2023/09/07 06:58:27;;;;;;;0.30;0.30;;;17.90;99.90;;;;;;4957400;29;20412;-64
2023/09/07 07:00:56;;;;;;;0.30;0.20;;;18.10;99.90;;;;;;4955106;29;20471;-65
2023/09/07 07:03:22;;;;;;;0.30;0.30;;;18.10;99.90;;;;;;4953614;29;20424;-67
2023/09/07 07:05:47;;;;;;;0.30;0.20;;;18.30;99.90;;;;;;4937166;29;20502;-65
2023/09/07 07:08:13;;;;;;;0.30;0.30;;;18.30;99.90;;;;;;4952292;29;20213;-67
2023/09/07 07:10:38;;;;;;;0.30;0.20;;;18.40;99.90;;;;;;4939575;29;20201;-64
2023/09/07 07:13:05;;;;;;;0.30;0.20;;;18.50;99.90;;;;;;4954785;29;20275;-65
2023/09/07 07:15:31;;;;;;;0.40;0.40;;;18.80;99.90;;;;;;4950672;29;20536;-65
2023/09/07 07:17:57;;;;;;;0.30;0.20;;;19.00;99.90;;;;;;4957160;29;20228;-66
2023/09/07 07:20:22;;;;;;;0.30;0.23;;;19.10;99.90;;;;;;4935010;29;20185;-64
2023/09/07 07:22:48;;;;;;;0.57;0.53;;;19.30;99.90;;;;;;4929323;29;20193;-64
2023/09/07 07:25:14;;;;;;;0.30;0.30;;;19.30;99.90;;;;;;4956306;29;20675;-64
2023/09/07 07:27:39;;;;;;;0.30;0.20;;;19.40;99.90;;;;;;4956398;29;20208;-70
2023/09/07 07:30:05;;;;;;;0.30;0.30;;;19.50;99.90;;;;;;4956302;28;20743;-71
2023/09/07 07:32:31;;;;;;;0.30;0.30;;;19.60;99.90;;;;;;4956359;29;20260;-68
2023/09/07 07:34:57;;;;;;;0.30;0.20;;;19.80;99.90;;;;;;4956172;29;20531;-69
2023/09/07 07:37:22;;;;;;;0.30;0.20;;;19.90;99.90;;;;;;4955955;29;20582;-66
2023/09/07 07:39:48;;;;;;;0.30;0.20;;;20.10;99.90;;;;;;4956482;29;20424;-66
2023/09/07 07:42:13;;;;;;;0.30;0.20;;;20.20;99.90;;;;;;4956046;29;20203;-66
2023/09/07 07:44:39;;;;;;;0.30;0.23;;;20.40;99.90;;;;;;4951334;29;20347;-66
2023/09/07 07:47:04;;;;;;;0.30;0.30;;;20.50;99.90;;;;;;4956266;29;20611;-65
2023/09/07 07:49:31;;;;;;;0.30;0.20;;;20.70;99.90;;;;;;4955625;29;20181;-65
2023/09/07 07:51:57;;;;;;;0.30;0.30;;;21.00;99.90;;;;;;4932196;29;20189;-65
2023/09/07 07:54:24;;;;;;;0.30;0.30;;;21.40;99.90;;;;;;4954469;28;20508;-65
2023/09/07 07:56:50;;;;;;;0.30;0.30;;;22.10;99.90;;;;;;4938991;29;20407;-67
2023/09/07 07:59:16;;;;;;;0.30;0.20;;;23.10;99.90;;;;;;4935736;29;20440;-66
2023/09/07 08:01:41;;;;;;;0.50;0.40;;;24.40;99.90;;;;;;4955372;29;20425;-67
2023/09/07 08:04:08;;;;;;;0.30;0.20;;;25.70;99.90;;;;;;4954314;29;20180;-67
2023/09/07 08:06:34;;;;;;;0.30;0.20;;;27.10;97.80;;;;;;4955614;28;20291;-67
2023/09/07 08:09:00;;;;;;;0.30;0.30;;;28.30;94.40;;;;;;4956149;29;20470;-66
2023/09/07 08:11:26;;;;;;;0.37;0.30;;;29.30;92.70;;;;;;4956206;29;20425;-69
2023/09/07 08:13:52;;;;;;;0.30;0.30;;;30.00;91.50;;;;;;4955639;29;20184;-63
2023/09/07 08:16:18;;;;;;;0.30;0.30;;;30.70;90.30;;;;;;4936823;29;20463;-65
2023/09/07 08:18:44;;;;;;;0.30;0.30;;;31.20;87.00;;;;;;4936800;29;20170;-63
2023/09/07 08:21:09;;;;;;;0.30;0.30;;;31.70;85.80;;;;;;4947425;29;20184;-66
2023/09/07 08:23:35;;;;;;;0.30;0.30;;;32.10;83.70;;;;;;4955109;29;20204;-64
2023/09/07 08:26:00;;;;;;;0.30;0.30;;;32.50;81.80;;;;;;4955551;29;20204;-62
2023/09/07 08:28:28;;;;;;;0.30;0.30;;;33.10;80.20;;;;;;4953772;29;20205;-62
2023/09/07 08:30:54;;;;;;;0.60;0.60;;;33.40;77.80;;;;;;4955137;29;20212;-63
2023/09/07 08:33:23;;;;;;;0.30;0.30;;;33.50;77.10;;;;;;4955485;29;20918;-66
2023/09/07 08:35:53;;;;;;;0.30;0.30;;;33.60;77.00;;;;;;4954946;29;20403;-66
2023/09/07 08:38:22;;;;;;;0.30;0.30;;;33.80;75.60;;;;;;4955726;29;20775;-66
2023/09/07 08:40:48;;;;;;;0.40;0.40;;;33.70;75.30;;;;;;4954882;28;20424;-63
2023/09/07 08:43:14;;;;;;;0.30;0.30;;;33.60;75.30;;;;;;4954895;29;20416;-67
2023/09/07 08:45:50;;;;;;;0.50;0.50;;;33.80;75.10;;;;;;4954949;29;20205;-63
2023/09/07 08:48:18;;;;;;;0.30;0.30;;;33.90;75.50;;;;;;4955598;29;20825;-67
2023/09/07 08:50:49;;;;;;;0.40;0.40;;;33.80;75.60;;;;;;4955383;29;20978;-62
2023/09/07 08:53:18;;;;;;;0.40;0.40;;;34.30;74.60;;;;;;4955473;29;20405;-67
2023/09/07 08:55:44;;;;;;;0.50;0.40;;;34.90;72.60;;;;;;4955071;29;20516;-63
2023/09/07 08:58:10;;;;;;;0.40;0.40;;;35.20;72.10;;;;;;4955693;29;20855;-66
2023/09/07 09:00:37;;;;;;;0.50;0.50;;;35.30;71.50;;;;;;4955236;29;20651;-65
2023/09/07 09:03:03;;;;;;;0.40;0.40;;;35.70;70.70;;;;;;4955469;29;20516;-61
2023/09/07 09:05:30;;;;;;;0.50;0.50;;;35.80;70.10;;;;;;4954810;29;20432;-63
2023/09/07 09:08:05;;;;;;;0.30;0.30;;;35.90;69.50;;;;;;4955139;29;21181;-62
2023/09/07 09:10:31;;;;;;;1.10;1.00;;;36.20;68.70;;;;;;4955191;29;20453;-63
2023/09/07 09:12:59;;;;;;;1.57;1.47;;;36.80;68.20;;;;;;4955110;29;20416;-63
2023/09/07 09:15:26;;;;;;;1.37;1.30;;;37.20;66.20;;;;;;4955003;29;20559;-63
2023/09/07 09:17:53;;;;;;;1.30;1.20;;;37.40;65.50;;;;;;4955608;29;20412;-64
2023/09/07 09:20:23;;;;;;;1.20;1.10;;;37.60;64.80;;;;;;4955205;29;20949;-67
2023/09/07 09:22:54;;;;;;;1.60;1.50;;;37.60;64.80;;;;;;4955318;29;20444;-66
2023/09/07 09:25:20;;;;;;;1.77;1.67;;;37.40;64.50;;;;;;4954486;29;20483;-66
2023/09/07 09:27:47;;;;;;;1.30;1.20;;;37.50;63.40;;;;;;4954876;29;20551;-67
2023/09/07 09:30:15;;;;;;;0.90;0.90;;;37.40;64.50;;;;;;4955250;29;20888;-63
2023/09/07 09:32:44;;;;;;;1.37;1.27;;;37.30;64.40;;;;;;4955138;29;20826;-64
2023/09/07 09:35:10;;;;;;;1.30;1.20;;;37.10;64.20;;;;;;4954695;29;20444;-68
2023/09/07 09:37:48;;;;;;;1.00;1.00;;;37.10;64.50;;;;;;4955100;29;20416;-66
2023/09/07 09:40:14;;;;;;;1.10;0.97;;;37.00;64.90;;;;;;4955097;29;20420;-64
2023/09/07 09:42:44;;;;;;;1.33;1.23;;;37.20;63.90;;;;;;4955226;29;20434;-63
2023/09/07 09:45:11;;;;;;;1.30;1.30;;;37.20;64.40;;;;;;4954566;28;20439;-64
2023/09/07 09:47:41;;;;;;;1.13;1.13;;;37.20;63.70;;;;;;4955084;29;20468;-63
2023/09/07 09:50:10;;;;;;;1.33;1.23;;;37.40;63.50;;;;;;4955064;29;20413;-66
2023/09/07 09:52:38;;;;;;;1.00;1.00;;;37.50;62.80;;;;;;4955510;28;20433;-65
2023/09/07 09:55:07;;;;;;;1.47;1.37;;;37.40;62.80;;;;;;4958111;28;20458;-62
2023/09/07 09:57:34;;;;;;;1.60;1.50;;;37.50;63.70;;;;;;4958803;29;20424;-62
2023/09/07 10:00:06;;;;;;;1.23;1.13;;;37.70;62.70;;;;;;4958558;29;20416;-66
2023/09/07 10:02:35;;;;;;;1.13;1.10;;;37.90;62.70;;;;;;4958649;29;20455;-65
2023/09/07 10:05:06;;;;;;;1.87;1.77;;;38.10;61.20;;;;;;4957942;28;20927;-62
2023/09/07 10:07:42;;;;;;;1.23;1.23;;;37.80;61.30;;;;;;4958509;29;20472;-65
2023/09/07 10:10:12;;;;;;;1.23;1.23;;;37.40;62.50;;;;;;4958281;29;20420;-64
2023/09/07 10:12:55;;;;;;;1.17;1.13;;;37.30;62.90;;;;;;4958277;29;20416;-62
2023/09/07 10:15:26;;;;;;;1.53;1.43;;;37.10;63.20;;;;;;4957785;28;20433;-66
2023/09/07 10:18:03;;;;;;;0.90;0.90;;;37.00;64.20;;;;;;4958093;29;20420;-63
2023/09/07 10:20:34;;;;;;;0.97;0.97;;;37.00;64.20;;;;;;4958047;29;20412;-63
2023/09/07 10:23:06;;;;;;;1.40;1.30;;;36.80;63.70;;;;;;4958034;29;20623;-63
2023/09/07 10:25:36;;;;;;;0.90;0.90;;;36.50;65.10;;;;;;4957566;28;20435;-62
2023/09/07 10:28:02;;;;;;;1.33;1.33;;;36.20;66.30;;;;;;4958183;29;20416;-65
2023/09/07 10:30:29;;;;;;;1.70;1.60;;;36.00;67.00;;;;;;4958157;29;20500;-63
2023/09/07 10:32:57;;;;;;;1.00;1.00;;;35.90;65.70;;;;;;4958067;29;20766;-65
2023/09/07 10:35:25;;;;;;;1.37;1.30;;;35.90;66.60;;;;;;4957721;28;20433;-66
2023/09/07 10:37:51;;;;;;;1.53;1.13;;;35.80;66.40;;;;;;4957717;29;20466;-65
2023/09/07 10:40:21;;;;;;;1.57;1.47;;;35.60;65.80;;;;;;4957512;29;20919;-65
2023/09/07 10:42:47;;;;;;;0.90;0.90;;;35.60;66.30;;;;;;4957872;29;20519;-63
2023/09/07 10:45:16;;;;;;;1.80;1.13;;;35.60;67.10;;;;;;4957475;28;20428;-67
2023/09/07 10:47:43;;;;;;;1.20;1.20;;;35.70;66.20;;;;;;4957706;29;20523;-65
2023/09/07 10:50:13;;;;;;;0.83;0.83;;;35.70;65.60;;;;;;4957640;29;20416;-63
2023/09/07 10:52:41;;;;;;;1.23;1.13;;;35.50;65.60;;;;;;4957597;29;20413;-64
2023/09/07 10:55:10;;;;;;;1.20;1.20;;;35.20;67.30;;;;;;4956998;28;20420;-61
2023/09/07 10:57:46;;;;;;;1.03;1.03;;;34.80;66.30;;;;;;4957494;29;20539;-64
2023/09/07 11:00:13;;;;;;;1.20;1.20;;;34.50;67.10;;;;;;4940582;29;20428;-62
2023/09/07 11:02:43;;;;;;;0.80;0.80;;;34.00;68.90;;;;;;4957567;29;20503;-65
2023/09/07 11:05:10;;;;;;;1.23;1.13;;;33.90;69.10;;;;;;4956256;28;20457;-65
2023/09/07 11:07:37;;;;;;;1.20;1.10;;;33.70;69.60;;;;;;4957058;29;20428;-61
2023/09/07 11:10:06;;;;;;;1.10;1.00;;;33.20;70.30;;;;;;4957086;29;20970;-65
2023/09/07 11:12:40;;;;;;;1.13;1.03;;;32.60;71.70;;;;;;4957472;29;20388;-66
2023/09/07 11:15:09;;;;;;;0.60;0.60;;;31.90;73.60;;;;;;4956773;28;20464;-66
2023/09/07 11:17:38;;;;;;;0.40;0.40;;;31.20;74.60;;;;;;4957283;29;20467;-67
2023/09/07 11:20:10;;;;;;;0.43;0.43;;;30.30;78.50;;;;;;4956993;29;20475;-63
2023/09/07 11:22:38;;;;;;;0.30;0.30;;;29.70;79.60;;;;;;4957124;29;20730;-64
2023/09/07 11:25:05;;;;;;;0.60;0.30;;;29.30;80.30;;;;;;4939437;29;20459;-65
2023/09/07 11:27:32;;;;;;;0.60;0.60;;;29.00;81.40;;;;;;4956965;29;20916;-66
2023/09/07 11:29:58;;;;;;;0.80;0.60;;;28.70;83.40;;;;;;4939667;29;20407;-63
2023/09/07 11:32:24;;;;;;;0.47;0.47;;;28.50;83.50;;;;;;4956723;29;20416;-62
2023/09/07 11:34:53;;;;;;;0.40;0.40;;;28.20;84.30;;;;;;4956344;28;20421;-65
2023/09/07 11:37:23;;;;;;;0.60;0.60;;;28.00;85.90;;;;;;4956677;29;20458;-63
2023/09/07 11:39:49;;;;;;;1.00;0.70;;;27.90;86.60;;;;;;4956713;29;20420;-65
2023/09/07 11:42:15;;;;;;;0.50;0.50;;;27.80;87.50;;;;;;4956595;29;20538;-60
2023/09/07 11:44:40;;;;;;;1.13;1.03;;;27.70;89.00;;;;;;4956289;28;20200;-62
2023/09/07 11:47:06;;;;;;;0.30;0.30;;;27.60;88.40;;;;;;4956457;29;20572;-62
2023/09/07 11:49:33;;;;;;;0.30;0.30;;;27.50;89.00;;;;;;4956777;29;20639;-64
2023/09/07 11:51:58;;;;;;;0.77;0.60;;;27.50;88.60;;;;;;4939191;29;20199;-61
2023/09/07 11:54:24;;;;;;;0.40;0.40;;;27.40;89.30;;;;;;4955965;28;20386;-65
2023/09/07 11:56:50;;;;;;;2.50;0.57;;;27.50;90.00;;;;;;4956434;29;20203;-64
2023/09/07 11:59:17;;;;;;;0.80;0.50;;;27.50;89.70;;;;;;4956362;29;20676;-62
2023/09/07 12:01:43;;;;;;;0.60;0.60;;;27.60;89.80;;;;;;4956394;29;20394;-65
2023/09/07 12:04:09;;;;;;;0.93;0.93;;;27.70;90.10;;;;;;4955840;29;20391;-66
2023/09/07 12:06:35;;;;;;;0.40;0.40;;;27.60;90.20;;;;;;4956006;28;20465;-64
2023/09/07 12:09:09;;;;;;;0.90;0.43;;;27.60;90.50;;;;;;4956268;29;20411;-61
2023/09/07 12:11:34;;;;;;;0.50;0.50;;;27.70;90.00;;;;;;4938816;29;20175;-64
2023/09/07 12:14:00;;;;;;;0.30;0.30;;;27.70;90.00;;;;;;4955683;29;20762;-61
2023/09/07 12:16:27;;;;;;;0.30;0.20;;;27.70;90.40;;;;;;4954859;28;20200;-62
2023/09/07 12:18:52;;;;;;;0.30;0.30;;;27.70;90.20;;;;;;4938870;29;20179;-63
2023/09/07 12:21:19;;;;;;;0.50;0.30;;;27.70;90.60;;;;;;4956039;29;20948;-66
2023/09/07 12:23:44;;;;;;;0.40;0.40;;;27.80;89.90;;;;;;4955555;29;20163;-63
2023/09/07 12:26:10;;;;;;;0.57;0.57;;;27.80;88.90;;;;;;4955794;28;20711;-62
2023/09/07 12:28:36;;;;;;;0.30;0.30;;;27.80;89.00;;;;;;4955697;29;20207;-63
2023/09/07 12:31:02;;;;;;;0.30;0.20;;;27.80;89.70;;;;;;4955902;29;20573;-67
2023/09/07 12:33:30;;;;;;;2.33;0.63;;;27.90;90.10;;;;;;4955879;29;20409;-61
2023/09/07 12:35:55;;;;;;;0.30;0.30;;;27.90;90.00;;;;;;4954307;29;20423;-66
2023/09/07 12:38:27;;;;;;;0.50;0.50;;;28.00;89.90;;;;;;4955013;29;20453;-63
2023/09/07 12:40:53;;;;;;;0.60;0.60;;;28.00;90.30;;;;;;4955703;29;20190;-61
2023/09/07 12:43:19;;;;;;;0.30;0.30;;;28.10;89.00;;;;;;4955393;29;20437;-60
2023/09/07 12:45:46;;;;;;;0.30;0.30;;;28.10;88.40;;;;;;4954536;29;20528;-64
2023/09/07 12:48:12;;;;;;;0.90;0.90;;;28.10;88.30;;;;;;4955514;29;20519;-65
2023/09/07 12:50:37;;;;;;;0.30;0.30;;;28.10;89.00;;;;;;4955390;29;20434;-61
2023/09/07 12:53:03;;;;;;;0.63;0.63;;;28.20;88.40;;;;;;4955351;29;20181;-63
2023/09/07 12:55:29;;;;;;;0.40;0.40;;;28.20;87.70;;;;;;4954437;29;20289;-62
2023/09/07 12:57:55;;;;;;;0.50;0.47;;;28.20;88.30;;;;;;4954278;29;20203;-63
2023/09/07 13:00:21;;;;;;;0.30;0.30;;;28.30;88.70;;;;;;4954530;29;20793;-64
2023/09/07 13:02:46;;;;;;;0.47;0.47;;;28.30;88.30;;;;;;4954971;29;20175;-63
2023/09/07 13:05:12;;;;;;;0.30;0.20;;;28.40;87.50;;;;;;4954772;29;20198;-66
2023/09/07 13:07:38;;;;;;;0.73;0.73;;;28.40;88.00;;;;;;4955408;28;20551;-64
2023/09/07 13:10:05;;;;;;;0.40;0.40;;;28.40;87.40;;;;;;4955437;29;20228;-62
2023/09/07 13:12:33;;;;;;;3.60;0.93;;;28.50;88.00;;;;;;4955073;29;20180;-62
2023/09/07 13:14:59;;;;;;;0.47;0.30;;;28.50;87.70;;;;;;4954604;29;20452;-62
2023/09/07 13:17:25;;;;;;;0.73;0.70;;;28.60;86.20;;;;;;4938145;29;20975;-62
2023/09/07 13:19:50;;;;;;;0.30;0.20;;;28.60;85.70;;;;;;4955293;29;20276;-65
2023/09/07 13:22:17;;;;;;;0.30;0.30;;;28.60;86.40;;;;;;4955430;29;20180;-62
2023/09/07 13:24:42;;;;;;;1.07;0.87;;;28.60;86.40;;;;;;4954361;29;20242;-66
2023/09/07 13:27:09;;;;;;;0.47;0.40;;;28.70;86.70;;;;;;4955105;28;20464;-62
2023/09/07 13:29:36;;;;;;;0.30;0.30;;;28.70;86.70;;;;;;4959153;29;20260;-66
2023/09/07 13:32:02;;;;;;;0.30;0.30;;;28.70;87.10;;;;;;4959149;29;20416;-64
2023/09/07 13:34:28;;;;;;;2.70;0.30;;;28.70;87.00;;;;;;4958662;29;20440;-63
2023/09/07 13:36:53;;;;;;;0.93;0.40;;;28.70;86.30;;;;;;4958823;29;20434;-64
2023/09/07 13:39:19;;;;;;;0.50;0.50;;;28.60;86.50;;;;;;4958852;29;20507;-63
2023/09/07 13:41:45;;;;;;;0.30;0.20;;;28.70;86.80;;;;;;4957574;29;20212;-64
2023/09/07 13:44:11;;;;;;;0.43;0.43;;;28.70;86.00;;;;;;4958657;29;20170;-63
2023/09/07 13:46:37;;;;;;;0.30;0.27;;;28.70;86.80;;;;;;4958525;29;20223;-60
2023/09/07 13:49:03;;;;;;;0.30;0.30;;;28.80;85.80;;;;;;4941399;29;20801;-62
2023/09/07 13:51:31;;;;;;;0.80;0.70;;;28.80;85.80;;;;;;4958901;29;20635;-67
2023/09/07 13:53:57;;;;;;;0.40;0.40;;;28.90;86.30;;;;;;4958376;29;20181;-62
2023/09/07 13:56:22;;;;;;;0.30;0.30;;;28.90;86.10;;;;;;4940655;29;20502;-66
2023/09/07 13:58:48;;;;;;;3.83;1.40;;;28.80;86.10;;;;;;4958791;29;20259;-63
2023/09/07 14:01:13;;;;;;;0.30;0.30;;;28.80;86.60;;;;;;4958406;29;20250;-63
2023/09/07 14:03:39;;;;;;;0.80;0.30;;;28.90;85.00;;;;;;4958399;29;20171;-64
2023/09/07 14:06:05;;;;;;;0.40;0.40;;;28.90;84.60;;;;;;4957962;28;20678;-61
2023/09/07 14:08:33;;;;;;;0.30;0.30;;;28.90;85.50;;;;;;4958320;29;20548;-65
2023/09/07 14:10:58;;;;;;;0.30;0.20;;;28.90;85.30;;;;;;4958195;29;20184;-65
2023/09/07 14:13:24;;;;;;;0.30;0.30;;;28.90;86.20;;;;;;4958181;29;20415;-66
2023/09/07 14:15:49;;;;;;;0.50;0.50;;;28.80;85.30;;;;;;4957904;29;20200;-60
2023/09/07 14:18:15;;;;;;;1.30;1.20;;;28.90;85.90;;;;;;4958517;29;20223;-61
2023/09/07 14:20:41;;;;;;;0.37;0.37;;;28.90;84.70;;;;;;4958477;29;20181;-59
2023/09/07 14:23:07;;;;;;;0.30;0.30;;;28.80;85.40;;;;;;4958275;29;20736;-63
2023/09/07 14:25:32;;;;;;;0.30;0.30;;;28.70;85.50;;;;;;4957447;29;20200;-63
2023/09/07 14:27:58;;;;;;;1.80;0.70;;;28.70;86.00;;;;;;4957770;29;20631;-64
2023/09/07 14:30:24;;;;;;;0.30;0.20;;;28.70;85.30;;;;;;4958013;29;20187;-61
2023/09/07 14:32:49;;;;;;;0.40;0.40;;;28.80;85.60;;;;;;4940704;29;20188;-64
2023/09/07 14:35:15;;;;;;;0.40;0.40;;;28.70;85.60;;;;;;4957856;29;20220;-64
2023/09/07 14:37:41;;;;;;;0.50;0.50;;;28.70;86.50;;;;;;4957831;29;20203;-61
2023/09/07 14:40:08;;;;;;;0.30;0.27;;;28.80;85.70;;;;;;4956370;28;20511;-65
2023/09/07 14:42:36;;;;;;;0.30;0.20;;;28.70;85.70;;;;;;4957833;29;20394;-61
2023/09/07 14:45:02;;;;;;;0.60;0.60;;;28.70;85.50;;;;;;4957406;29;20414;-63
2023/09/07 14:47:31;;;;;;;0.30;0.30;;;28.70;86.10;;;;;;4955873;29;20486;-61
2023/09/07 14:49:56;;;;;;;0.50;0.50;;;28.80;86.40;;;;;;4956428;29;20420;-66
2023/09/07 14:52:25;;;;;;;0.30;0.20;;;28.70;85.50;;;;;;4957769;29;20390;-65
2023/09/07 14:54:51;;;;;;;0.30;0.20;;;28.70;85.20;;;;;;4956967;29;20324;-62
2023/09/07 14:57:16;;;;;;;0.57;0.37;;;28.60;85.40;;;;;;4957572;29;20540;-65
2023/09/07 14:59:42;;;;;;;0.73;0.73;;;28.60;86.10;;;;;;4957749;29;20172;-65
2023/09/07 15:02:08;;;;;;;0.73;0.60;;;28.60;85.20;;;;;;4957304;29;20186;-61
2023/09/07 15:04:33;;;;;;;0.80;0.80;;;28.60;85.70;;;;;;4957115;29;20258;-65
2023/09/07 15:06:59;;;;;;;0.40;0.40;;;28.50;85.70;;;;;;4957399;28;20567;-63
2023/09/07 15:09:25;;;;;;;0.53;0.53;;;28.50;85.10;;;;;;4957458;29;20231;-60
2023/09/07 15:11:53;;;;;;;0.70;0.70;;;28.50;85.90;;;;;;4957328;29;20263;-63
2023/09/07 15:14:18;;;;;;;0.30;0.30;;;28.50;85.90;;;;;;4956754;29;20188;-62
2023/09/07 15:16:44;;;;;;;2.70;1.80;;;28.50;86.40;;;;;;4939774;29;20467;-65
2023/09/07 15:19:10;;;;;;;0.30;0.20;;;28.50;86.40;;;;;;4957129;29;20181;-64
2023/09/07 15:21:35;;;;;;;2.50;0.50;;;28.50;85.20;;;;;;4957172;29;20181;-65
2023/09/07 15:24:01;;;;;;;0.40;0.30;;;28.50;85.30;;;;;;4957134;29;20176;-63
2023/09/07 15:26:27;;;;;;;0.30;0.30;;;28.50;85.00;;;;;;4957019;29;20196;-65
2023/09/07 15:28:52;;;;;;;0.30;0.23;;;28.50;85.00;;;;;;4957014;29;20627;-62
2023/09/07 15:31:18;;;;;;;0.30;0.30;;;28.50;84.70;;;;;;4956674;29;20186;-65
2023/09/07 15:33:43;;;;;;;0.57;0.50;;;28.50;84.00;;;;;;4956738;29;20191;-63
2023/09/07 15:36:09;;;;;;;0.60;0.60;;;28.50;84.00;;;;;;4956756;29;20555;-62
2023/09/07 15:38:34;;;;;;;0.30;0.23;;;28.40;83.60;;;;;;4956616;29;20207;-62
2023/09/07 15:41:04;;;;;;;0.70;0.30;;;28.40;84.30;;;;;;4956106;29;20179;-63
2023/09/07 15:43:31;;;;;;;0.30;0.30;;;28.40;84.20;;;;;;4956210;29;20636;-62
2023/09/07 15:45:58;;;;;;;0.30;0.20;;;28.30;83.70;;;;;;4956197;29;20436;-66
2023/09/07 15:48:25;;;;;;;0.40;0.30;;;28.30;83.90;;;;;;4956268;29;20863;-62
2023/09/07 15:50:51;;;;;;;0.60;0.40;;;28.30;84.10;;;;;;4956022;28;20493;-63
2023/09/07 15:53:17;;;;;;;0.40;0.30;;;28.30;83.50;;;;;;4956234;29;20914;-65
2023/09/07 15:55:42;;;;;;;0.40;0.40;;;28.30;83.30;;;;;;4955834;29;20433;-65
2023/09/07 15:58:08;;;;;;;0.60;0.50;;;28.20;82.60;;;;;;4956302;29;20234;-67
2023/09/07 16:00:34;;;;;;;0.40;0.40;;;28.20;82.50;;;;;;4956276;29;20180;-65
2023/09/07 16:02:59;;;;;;;0.60;0.60;;;28.20;81.60;;;;;;4956155;29;20182;-64
2023/09/07 16:05:25;;;;;;;0.50;0.50;;;28.20;81.90;;;;;;4938446;29;20739;-64
2023/09/07 16:07:51;;;;;;;0.30;0.30;;;28.10;82.30;;;;;;4955724;29;20221;-64
2023/09/07 16:10:17;;;;;;;0.40;0.37;;;28.10;81.90;;;;;;4955239;29;20961;-63
2023/09/07 16:12:43;;;;;;;0.40;0.40;;;28.10;81.80;;;;;;4955548;29;20436;-63
2023/09/07 16:15:09;;;;;;;0.30;0.30;;;28.10;81.40;;;;;;4955399;29;20232;-62
2023/09/07 16:17:35;;;;;;;0.73;0.50;;;28.00;81.90;;;;;;4955844;29;20607;-63
2023/09/07 16:20:00;;;;;;;0.70;0.40;;;28.00;82.30;;;;;;4955484;29;20422;-62
2023/09/07 16:22:26;;;;;;;0.43;0.30;;;27.90;82.60;;;;;;4955107;29;20524;-64
2023/09/07 16:24:52;;;;;;;0.30;0.30;;;27.90;82.30;;;;;;4937930;29;20289;-65
2023/09/07 16:27:18;;;;;;;0.40;0.40;;;27.90;82.50;;;;;;4937667;29;20463;-65
2023/09/07 16:29:44;;;;;;;1.27;0.50;;;27.80;83.00;;;;;;4955370;29;20183;-65
2023/09/07 16:32:10;;;;;;;0.30;0.30;;;27.80;82.60;;;;;;4941808;29;20200;-63
2023/09/07 16:34:36;;;;;;;0.30;0.30;;;27.80;82.40;;;;;;4955002;29;20428;-65
2023/09/07 16:37:01;;;;;;;0.57;0.57;;;27.70;82.60;;;;;;4937956;29;20481;-64
2023/09/07 16:39:27;;;;;;;0.30;0.30;;;27.60;81.70;;;;;;4955225;29;20179;-64
2023/09/07 16:41:56;;;;;;;0.30;0.30;;;27.60;82.10;;;;;;4955288;29;20532;-67
2023/09/07 16:44:21;;;;;;;0.30;0.20;;;27.50;81.90;;;;;;4954801;29;20205;-68
2023/09/07 16:46:47;;;;;;;0.30;0.30;;;27.40;82.30;;;;;;4955166;29;20432;-65
2023/09/07 16:49:13;;;;;;;0.40;0.40;;;27.40;82.20;;;;;;4954975;29;20538;-69